Terminal Aerodrome Forecast
Issued by NWS Birmingham, AL

Home | Current Version | Previous Version | Text Only | Print | Product List | Glossary On
Versions: 1 2 3 4 5 6 7 8 9 10 11 12 13 14 15 16 17
000
FTUS44 KBMX 192320
TAFBHM
TAF
KBHM 192320Z 2000/2024 VRB05KT P6SM BKN050
     FM200200 00000KT P6SM BKN150
     FM200800 00000KT 4SM BR SCT250
     FM201400 30005KT P6SM SCT250=

USA.gov is the U.S. government's official web portal to all federal, state and local government web resources and services.